createdAt,value
2022-12-28T00:01:31.179Z,76.96
2022-12-28T00:04:03.136Z,76.78
2022-12-28T00:06:29.792Z,76.85
2022-12-28T00:08:57.553Z,76.77
2022-12-28T00:11:30.582Z,76.91
2022-12-28T00:14:01.396Z,76.97
2022-12-28T00:16:35.008Z,77.16
2022-12-28T00:19:04.628Z,77.08
2022-12-28T00:21:31.834Z,77.26
2022-12-28T00:24:00.155Z,77.39
2022-12-28T00:26:29.638Z,77.38
2022-12-28T00:29:03.715Z,77.52
2022-12-28T00:31:32.877Z,77.29
2022-12-28T00:33:59.623Z,77.58
2022-12-28T00:37:09.225Z,77.55
2022-12-28T00:39:13.495Z,77.50
2022-12-28T00:41:40.354Z,77.38
2022-12-28T00:44:08.324Z,77.36
2022-12-28T00:46:35.097Z,77.37
2022-12-28T00:49:02.584Z,77.37
2022-12-28T00:51:29.406Z,77.46
2022-12-28T00:53:56.074Z,77.48
2022-12-28T00:56:23.532Z,77.50
2022-12-28T00:58:50.780Z,77.57
2022-12-28T01:01:22.262Z,77.76
2022-12-28T01:03:50.532Z,77.81
2022-12-28T01:06:19.957Z,78.26
2022-12-28T01:08:47.203Z,78.28
2022-12-28T01:11:18.399Z,78.15
2022-12-28T01:13:46.746Z,78.06
2022-12-28T01:16:16.071Z,78.14
2022-12-28T01:18:43.805Z,78.13
2022-12-28T01:21:13.628Z,78.49
2022-12-28T01:23:42.869Z,78.46
2022-12-28T01:26:09.693Z,78.46
2022-12-28T01:28:36.568Z,79.51
2022-12-28T01:31:09.452Z,80.95
2022-12-28T01:33:36.843Z,79.99
2022-12-28T01:36:23.617Z,79.43
2022-12-28T01:38:59.187Z,79.29
2022-12-28T01:41:28.319Z,78.95
2022-12-28T01:43:54.874Z,78.79
2022-12-28T01:46:45.998Z,78.89
2022-12-28T01:49:21.578Z,78.70
2022-12-28T01:52:00.751Z,78.73
2022-12-28T01:54:31.013Z,78.58
2022-12-28T01:56:58.658Z,78.54
2022-12-28T01:59:31.174Z,78.52
2022-12-28T02:01:58.139Z,78.36
2022-12-28T02:04:26.120Z,78.49
2022-12-28T02:06:54.557Z,78.53
2022-12-28T02:09:29.147Z,78.75
2022-12-28T02:11:57.846Z,78.91
2022-12-28T02:14:24.840Z,78.83
2022-12-28T02:16:53.278Z,100.00
2022-12-28T02:19:33.345Z,100.00
2022-12-28T02:22:14.915Z,100.00
2022-12-28T02:25:12.710Z,81.05
2022-12-28T02:27:59.750Z,81.31
2022-12-28T02:30:26.687Z,80.94
2022-12-28T02:33:52.269Z,82.22
2022-12-28T02:36:28.338Z,81.90
2022-12-28T02:39:03.227Z,81.28
2022-12-28T02:41:33.415Z,81.92
2022-12-28T02:44:01.222Z,82.01
2022-12-28T02:46:49.129Z,82.29
2022-12-28T02:49:43.888Z,81.58
2022-12-28T02:52:32.662Z,81.50
2022-12-28T02:55:33.742Z,81.35
2022-12-28T02:58:27.873Z,81.86
2022-12-28T03:01:00.586Z,81.86
2022-12-28T03:04:04.095Z,81.44
2022-12-28T03:07:01.433Z,81.01
2022-12-28T03:09:36.802Z,80.94
2022-12-28T03:12:19.738Z,80.94
2022-12-28T03:14:54.067Z,80.94
2022-12-28T03:17:42.845Z,81.03
2022-12-28T03:20:34.953Z,81.00
2022-12-28T03:23:24.346Z,80.98
2022-12-28T03:26:11.580Z,81.17
2022-12-28T03:29:03.634Z,80.63
2022-12-28T03:31:34.867Z,80.75
2022-12-28T03:34:07.500Z,80.57
2022-12-28T03:36:59.704Z,80.72
2022-12-28T03:39:41.731Z,80.79
2022-12-28T03:42:37.238Z,80.59
2022-12-28T03:45:46.289Z,80.46
2022-12-28T03:48:17.350Z,80.38
2022-12-28T03:50:48.373Z,80.20
2022-12-28T03:53:19.417Z,80.07
2022-12-28T03:55:46.237Z,80.04
2022-12-28T03:58:14.850Z,80.15
2022-12-28T04:00:41.771Z,80.05
2022-12-28T04:03:08.658Z,79.97
2022-12-28T04:05:35.387Z,79.97
2022-12-28T04:08:02.084Z,79.93
2022-12-28T04:10:29.958Z,80.04
2022-12-28T04:12:57.145Z,79.74
2022-12-28T04:15:23.795Z,79.76
2022-12-28T04:17:51.111Z,79.64
2022-12-28T04:20:18.047Z,79.45
2022-12-28T04:22:44.750Z,79.61
2022-12-28T04:25:11.543Z,79.40
2022-12-28T04:27:39.562Z,79.57
2022-12-28T04:30:14.776Z,79.52
2022-12-28T04:32:41.417Z,79.33
2022-12-28T04:35:08.777Z,79.26
2022-12-28T04:37:45.375Z,79.01
2022-12-28T04:40:12.593Z,79.27
2022-12-28T04:42:39.231Z,79.17
2022-12-28T04:45:06.387Z,79.20
2022-12-28T04:47:33.036Z,79.25
2022-12-28T04:49:59.839Z,78.91
2022-12-28T04:52:26.520Z,78.99
2022-12-28T04:54:53.152Z,79.01
2022-12-28T04:57:19.778Z,78.78
2022-12-28T04:59:46.406Z,78.75
2022-12-28T05:02:13.133Z,78.32
2022-12-28T05:04:39.849Z,78.28
2022-12-28T05:07:06.618Z,78.49
2022-12-28T05:09:33.232Z,78.40
2022-12-28T05:11:59.833Z,78.64
2022-12-28T05:14:26.482Z,78.40
2022-12-28T05:16:53.135Z,78.28
2022-12-28T05:19:19.715Z,78.31
2022-12-28T05:21:46.339Z,78.30
2022-12-28T05:24:12.945Z,78.22
2022-12-28T05:26:39.585Z,78.23
2022-12-28T05:29:06.245Z,78.30
2022-12-28T05:31:32.952Z,78.27
2022-12-28T05:33:59.578Z,78.19
2022-12-28T05:36:27.353Z,78.40
2022-12-28T05:38:55.076Z,78.37
2022-12-28T05:41:25.114Z,78.16
2022-12-28T05:43:52.482Z,78.47
2022-12-28T05:46:24.303Z,78.35
2022-12-28T05:48:51.349Z,78.40
2022-12-28T05:51:20.751Z,78.18
2022-12-28T05:53:47.749Z,78.35
2022-12-28T05:56:20.498Z,78.54
2022-12-28T05:58:54.688Z,77.97
2022-12-28T06:01:24.563Z,78.00
2022-12-28T06:03:57.368Z,78.00
2022-12-28T06:06:24.451Z,78.01
2022-12-28T06:08:51.337Z,77.87
2022-12-28T06:11:20.721Z,77.67
2022-12-28T06:13:47.943Z,77.76
2022-12-28T06:16:20.870Z,77.76
2022-12-28T06:18:47.891Z,77.59
2022-12-28T06:21:16.772Z,77.58
2022-12-28T06:23:44.573Z,77.29
2022-12-28T06:26:14.010Z,77.46
2022-12-28T06:28:41.725Z,77.19
2022-12-28T06:31:12.037Z,77.09
2022-12-28T06:33:38.985Z,77.04
2022-12-28T06:36:17.741Z,77.15
2022-12-28T06:38:46.749Z,76.94
2022-12-28T06:41:15.596Z,77.08
2022-12-28T06:43:43.662Z,76.74
2022-12-28T06:46:11.641Z,76.77
2022-12-28T06:48:39.183Z,76.96
2022-12-28T06:51:10.573Z,76.78
2022-12-28T06:53:46.470Z,76.76
2022-12-28T06:56:18.794Z,76.78
2022-12-28T06:58:46.575Z,76.86
2022-12-28T07:01:17.460Z,76.55
2022-12-28T07:03:45.050Z,76.32
2022-12-28T07:06:13.627Z,76.66
2022-12-28T07:08:40.535Z,76.71
2022-12-28T07:11:10.700Z,76.45
2022-12-28T07:13:37.470Z,76.17
2022-12-28T07:16:11.493Z,76.49
2022-12-28T07:18:38.400Z,76.12
2022-12-28T07:21:21.681Z,76.54
2022-12-28T07:23:52.293Z,76.32
2022-12-28T07:26:24.759Z,76.31
2022-12-28T07:28:54.070Z,76.25
2022-12-28T07:31:35.722Z,75.73
2022-12-28T07:34:04.968Z,75.92
2022-12-28T07:36:33.523Z,75.84
2022-12-28T07:39:00.981Z,76.31
2022-12-28T07:41:32.855Z,76.27
2022-12-28T07:44:00.332Z,76.25
2022-12-28T07:46:29.568Z,75.97
2022-12-28T07:49:01.017Z,76.07
2022-12-28T07:51:32.266Z,75.98
2022-12-28T07:53:59.837Z,76.07
2022-12-28T07:56:28.243Z,75.84
2022-12-28T07:58:57.332Z,75.96
2022-12-28T08:01:26.441Z,75.82
2022-12-28T08:03:55.327Z,76.13
2022-12-28T08:06:23.514Z,75.81
2022-12-28T08:08:53.924Z,75.77
2022-12-28T08:11:23.650Z,75.75
2022-12-28T08:13:52.602Z,75.68
2022-12-28T08:16:21.137Z,75.50
2022-12-28T08:18:48.852Z,75.49
2022-12-28T08:21:21.014Z,75.27
2022-12-28T08:23:48.425Z,75.58
2022-12-28T08:26:23.551Z,75.46
2022-12-28T08:28:53.532Z,75.53
2022-12-28T08:31:22.857Z,75.66
2022-12-28T08:33:50.485Z,75.54
2022-12-28T08:36:17.282Z,75.45
2022-12-28T08:38:45.177Z,75.50
2022-12-28T08:41:18.049Z,75.82
2022-12-28T08:43:45.558Z,76.01
2022-12-28T08:46:18.092Z,75.71
2022-12-28T08:48:46.683Z,75.60
2022-12-28T08:51:17.332Z,75.41
2022-12-28T08:53:44.950Z,75.29
2022-12-28T08:56:13.231Z,75.25
2022-12-28T08:58:41.565Z,75.33
2022-12-28T09:01:14.841Z,75.00
2022-12-28T09:03:43.965Z,74.93
2022-12-28T09:06:14.243Z,74.77
2022-12-28T09:08:42.578Z,74.68
2022-12-28T09:11:13.605Z,74.50
2022-12-28T09:13:41.026Z,73.28
2022-12-28T09:16:10.978Z,73.28
2022-12-28T09:18:39.533Z,73.31
2022-12-28T09:21:17.176Z,72.80
2022-12-28T09:23:45.445Z,73.40
2022-12-28T09:26:18.095Z,72.89
2022-12-28T09:28:52.657Z,72.85
2022-12-28T09:31:21.096Z,72.65
2022-12-28T09:36:50.936Z,72.06
2022-12-28T09:39:20.589Z,71.75
2022-12-28T09:41:55.566Z,71.42
2022-12-28T09:44:37.513Z,69.85
2022-12-28T09:47:29.266Z,69.51
2022-12-28T09:50:13.883Z,70.60
2022-12-28T09:52:50.039Z,70.86
2022-12-28T09:55:18.898Z,70.84
2022-12-28T09:57:52.260Z,70.79
2022-12-28T10:00:22.836Z,69.87
2022-12-28T10:02:52.992Z,69.70
2022-12-28T10:05:21.317Z,69.49
2022-12-28T10:07:48.154Z,69.11
2022-12-28T10:10:18.821Z,68.60
2022-12-28T10:12:47.484Z,68.61
2022-12-28T10:15:15.647Z,68.38
2022-12-28T10:17:43.143Z,67.93
2022-12-28T10:20:19.006Z,67.57
2022-12-28T10:22:54.772Z,67.76
2022-12-28T10:25:24.678Z,67.62
2022-12-28T10:27:52.523Z,67.71
2022-12-28T10:30:26.959Z,66.85
2022-12-28T10:33:03.360Z,66.52
2022-12-28T10:35:37.357Z,66.39
2022-12-28T10:38:07.532Z,66.44
2022-12-28T10:40:45.755Z,65.94
2022-12-28T10:43:33.962Z,65.72
2022-12-28T10:46:21.940Z,65.90
2022-12-28T10:49:15.409Z,63.33
2022-12-28T10:52:09.623Z,64.02
2022-12-28T10:54:38.444Z,65.02
2022-12-28T10:57:05.467Z,65.73
2022-12-28T10:59:33.211Z,65.57
2022-12-28T11:02:35.842Z,64.49
2022-12-28T11:05:05.015Z,65.71
2022-12-28T11:07:33.289Z,64.27
2022-12-28T11:10:22.746Z,64.31
2022-12-28T11:12:50.294Z,64.35
2022-12-28T11:15:19.176Z,65.00
2022-12-28T11:17:53.124Z,64.14
2022-12-28T11:20:24.805Z,64.57
2022-12-28T11:22:52.259Z,64.72
2022-12-28T11:25:21.308Z,64.41
2022-12-28T11:27:48.655Z,64.49
2022-12-28T11:30:18.079Z,64.28
2022-12-28T11:32:55.510Z,63.86
2022-12-28T11:35:26.701Z,63.99
2022-12-28T11:38:05.618Z,64.10
2022-12-28T11:40:52.895Z,63.52
2022-12-28T11:43:28.630Z,62.77
2022-12-28T11:45:58.949Z,62.64
2022-12-28T11:48:43.902Z,63.23
2022-12-28T11:51:27.123Z,63.53
2022-12-28T11:53:58.578Z,63.45
2022-12-28T11:56:46.417Z,63.39
2022-12-28T11:59:25.065Z,63.98
2022-12-28T12:01:53.736Z,64.43
2022-12-28T12:04:28.315Z,63.94
2022-12-28T12:06:54.949Z,63.67
2022-12-28T12:09:21.629Z,64.26
2022-12-28T12:11:50.884Z,63.98
2022-12-28T12:15:03.637Z,63.07
2022-12-28T12:17:43.414Z,63.08
2022-12-28T12:20:36.588Z,62.66
2022-12-28T12:23:23.572Z,63.07
2022-12-28T12:25:55.700Z,63.44
2022-12-28T12:28:41.176Z,62.75
2022-12-28T12:31:14.863Z,63.07
2022-12-28T12:33:46.694Z,63.01
2022-12-28T12:36:16.481Z,62.76
2022-12-28T12:39:28.505Z,61.87
2022-12-28T12:42:17.296Z,62.55
2022-12-28T12:44:56.897Z,61.85
2022-12-28T12:47:44.903Z,62.19
2022-12-28T12:50:25.829Z,62.28
2022-12-28T12:53:11.538Z,61.96
2022-12-28T12:55:54.494Z,61.77
2022-12-28T12:58:27.048Z,61.04
2022-12-28T13:01:18.358Z,60.18
2022-12-28T13:03:47.809Z,61.58
2022-12-28T13:06:21.450Z,61.06
2022-12-28T13:09:03.326Z,60.51
2022-12-28T13:11:36.415Z,61.10
2022-12-28T13:14:03.241Z,60.79
2022-12-28T13:16:32.690Z,60.77
2022-12-28T13:19:06.057Z,59.39
2022-12-28T13:21:50.701Z,58.89
2022-12-28T13:24:30.671Z,58.55
2022-12-28T13:27:00.019Z,59.88
2022-12-28T13:29:31.035Z,59.78
2022-12-28T13:31:57.694Z,60.11
2022-12-28T13:34:24.373Z,59.32
2022-12-28T13:36:56.723Z,58.27
2022-12-28T13:39:25.364Z,59.13
2022-12-28T13:42:13.637Z,59.78
2022-12-28T13:45:10.693Z,58.99
2022-12-28T13:47:42.217Z,60.10
2022-12-28T13:50:14.461Z,59.74
2022-12-28T13:53:02.903Z,59.61
2022-12-28T13:55:36.332Z,57.89
2022-12-28T13:58:09.780Z,59.39
2022-12-28T14:00:38.914Z,59.02
2022-12-28T14:03:09.296Z,58.19
2022-12-28T14:05:36.255Z,58.32
2022-12-28T14:08:06.056Z,56.86
2022-12-28T14:10:32.948Z,57.77
2022-12-28T14:13:01.508Z,57.97
2022-12-28T14:15:28.540Z,57.41
2022-12-28T14:17:56.014Z,57.91
2022-12-28T14:20:22.671Z,58.84
2022-12-28T14:22:49.571Z,59.08
2022-12-28T14:25:19.293Z,58.46
2022-12-28T14:28:02.414Z,57.63
2022-12-28T14:30:31.557Z,57.61
2022-12-28T14:33:09.946Z,58.54
2022-12-28T14:35:49.208Z,57.53
2022-12-28T14:38:23.181Z,56.88
2022-12-28T14:40:55.100Z,57.64
2022-12-28T14:43:24.444Z,58.21
2022-12-28T14:46:07.141Z,58.09
2022-12-28T14:48:42.966Z,57.35
2022-12-28T14:51:15.702Z,57.41
2022-12-28T14:53:45.763Z,57.62
2022-12-28T14:56:18.749Z,57.15
2022-12-28T14:58:55.707Z,56.87
2022-12-28T15:01:25.436Z,54.63
2022-12-28T15:03:54.950Z,55.79
2022-12-28T15:06:25.795Z,56.43
2022-12-28T15:08:54.343Z,56.40
2022-12-28T15:11:23.256Z,55.99
2022-12-28T15:13:50.428Z,55.97
2022-12-28T15:16:19.129Z,56.17
2022-12-28T15:18:45.907Z,56.39
2022-12-28T15:21:14.963Z,56.77
2022-12-28T15:23:41.675Z,56.50
2022-12-28T15:26:13.156Z,56.73
2022-12-28T15:28:40.158Z,56.65
2022-12-28T15:31:13.544Z,56.64
2022-12-28T15:33:40.620Z,56.97
2022-12-28T15:36:17.032Z,56.55
2022-12-28T15:38:45.562Z,56.27
2022-12-28T15:41:30.743Z,56.37
2022-12-28T15:43:57.486Z,56.22
2022-12-28T15:46:24.199Z,55.96
2022-12-28T15:48:50.908Z,56.08
2022-12-28T15:51:17.555Z,55.66
2022-12-28T15:53:44.222Z,55.25
2022-12-28T15:56:24.363Z,55.22
2022-12-28T15:58:53.754Z,55.43
2022-12-28T16:01:21.084Z,55.20
2022-12-28T16:03:52.118Z,55.95
2022-12-28T16:06:19.795Z,56.17
2022-12-28T16:08:46.545Z,56.21
2022-12-28T16:11:15.919Z,56.18
2022-12-28T16:13:42.780Z,56.17
2022-12-28T16:16:12.343Z,56.30
2022-12-28T16:18:39.798Z,56.49
2022-12-28T16:21:09.077Z,56.47
2022-12-28T16:23:38.533Z,56.60
2022-12-28T16:26:06.808Z,56.62
2022-12-28T16:28:34.194Z,56.70
2022-12-28T16:31:01.611Z,56.31
2022-12-28T16:33:28.453Z,56.43
2022-12-28T16:35:59.538Z,56.88
2022-12-28T16:38:28.912Z,57.01
2022-12-28T16:40:57.019Z,57.12
2022-12-28T16:43:24.393Z,57.00
2022-12-28T16:45:51.172Z,57.62
2022-12-28T16:48:17.866Z,57.54
2022-12-28T16:50:44.565Z,57.63
2022-12-28T16:53:11.240Z,58.33
2022-12-28T16:55:41.103Z,58.66
2022-12-28T16:58:08.635Z,58.67
2022-12-28T17:00:35.516Z,58.97
2022-12-28T17:03:02.340Z,58.90
2022-12-28T17:05:34.364Z,58.65
2022-12-28T17:08:01.747Z,59.29
2022-12-28T17:10:28.850Z,59.27
2022-12-28T17:12:55.562Z,59.38
2022-12-28T17:15:22.352Z,59.35
2022-12-28T17:17:49.039Z,60.05
2022-12-28T17:20:15.829Z,60.14
2022-12-28T17:22:42.499Z,59.98
2022-12-28T17:25:09.174Z,60.48
2022-12-28T17:27:35.822Z,60.62
2022-12-28T17:30:02.498Z,60.33
2022-12-28T17:32:29.147Z,60.27
2022-12-28T17:34:55.755Z,60.58
2022-12-28T17:37:22.442Z,60.35
2022-12-28T17:39:49.102Z,60.04
2022-12-28T17:42:15.831Z,60.28
2022-12-28T17:44:42.513Z,60.41
2022-12-28T17:47:09.145Z,60.51
2022-12-28T17:49:35.933Z,59.87
2022-12-28T17:52:03.042Z,60.19
2022-12-28T17:54:29.696Z,60.38
2022-12-28T17:56:56.374Z,60.70
2022-12-28T17:59:22.977Z,60.73
2022-12-28T18:01:49.696Z,60.69
2022-12-28T18:04:17.584Z,60.76
2022-12-28T18:06:44.219Z,60.69
2022-12-28T18:09:10.882Z,60.51
2022-12-28T18:11:37.535Z,60.44
2022-12-28T18:14:04.211Z,60.65
2022-12-28T18:16:30.946Z,60.96
2022-12-28T18:18:57.574Z,61.19
2022-12-28T18:21:24.255Z,60.88
2022-12-28T18:23:52.625Z,61.27
2022-12-28T18:26:26.511Z,61.30
2022-12-28T18:28:54.625Z,61.87
2022-12-28T18:31:22.036Z,61.43
2022-12-28T18:33:48.901Z,61.27
2022-12-28T18:36:17.923Z,61.54
2022-12-28T18:38:47.019Z,61.24
2022-12-28T18:41:15.694Z,61.37
2022-12-28T18:43:42.617Z,61.62
2022-12-28T18:46:10.122Z,61.73
2022-12-28T18:48:39.144Z,61.49
2022-12-28T18:51:14.309Z,61.74
2022-12-28T18:53:41.829Z,61.79
2022-12-28T18:56:11.385Z,61.89
2022-12-28T18:58:39.386Z,62.03
2022-12-28T19:01:32.923Z,61.91
2022-12-28T19:04:01.715Z,62.25
2022-12-28T19:06:29.482Z,62.02
2022-12-28T19:09:00.603Z,62.63
2022-12-28T19:11:28.249Z,62.46
2022-12-28T19:13:54.957Z,62.78
2022-12-28T19:16:27.138Z,62.76
2022-12-28T19:18:58.145Z,62.89
2022-12-28T19:21:29.300Z,62.96
2022-12-28T19:23:57.921Z,63.24
2022-12-28T19:26:25.541Z,63.34
2022-12-28T19:28:52.817Z,63.62
2022-12-28T19:31:19.904Z,63.85
2022-12-28T19:33:47.280Z,63.38
2022-12-28T19:36:14.078Z,63.39
2022-12-28T19:38:40.826Z,63.47
2022-12-28T19:41:10.117Z,63.30
2022-12-28T19:43:37.141Z,63.60
2022-12-28T19:46:15.702Z,63.61
2022-12-28T19:48:42.817Z,63.70
2022-12-28T19:51:10.889Z,63.67
2022-12-28T19:53:45.931Z,63.53
2022-12-28T19:56:17.181Z,63.83
2022-12-28T19:58:45.103Z,64.18
2022-12-28T20:01:23.073Z,63.82
2022-12-28T20:03:49.958Z,64.02
2022-12-28T20:06:19.712Z,63.95
2022-12-28T20:08:47.583Z,64.00
2022-12-28T20:11:14.264Z,64.01
2022-12-28T20:13:41.289Z,64.36
2022-12-28T20:16:09.147Z,64.08
2022-12-28T20:18:36.260Z,64.27
2022-12-28T20:21:21.886Z,64.12
2022-12-28T20:23:50.642Z,64.05
2022-12-28T20:26:18.674Z,64.49
2022-12-28T20:28:45.711Z,64.15
2022-12-28T20:31:14.718Z,64.67
2022-12-28T20:33:43.211Z,64.39
2022-12-28T20:36:18.792Z,64.80
2022-12-28T20:38:46.523Z,64.71
2022-12-28T20:41:36.322Z,64.69
2022-12-28T20:44:10.985Z,65.08
2022-12-28T20:46:37.723Z,64.97
2022-12-28T20:49:05.035Z,64.97
2022-12-28T20:51:32.537Z,65.38
2022-12-28T20:53:59.322Z,65.68
2022-12-28T20:56:26.153Z,65.93
2022-12-28T20:58:53.329Z,65.84
2022-12-28T21:01:20.070Z,66.10
2022-12-28T21:03:47.175Z,66.19
2022-12-28T21:06:14.253Z,66.03
2022-12-28T21:08:41.093Z,66.38
2022-12-28T21:11:08.059Z,66.14
2022-12-28T21:13:39.239Z,66.74
2022-12-28T21:16:09.815Z,66.95
2022-12-28T21:18:36.779Z,66.57
2022-12-28T21:21:03.777Z,66.71
2022-12-28T21:23:31.604Z,66.88
2022-12-28T21:26:06.522Z,66.97
2022-12-28T21:28:34.724Z,66.68
2022-12-28T21:31:04.924Z,66.76
2022-12-28T21:33:33.059Z,67.12
2022-12-28T21:36:05.475Z,66.85
2022-12-28T21:38:32.974Z,66.79
2022-12-28T21:41:11.499Z,67.07
2022-12-28T21:43:38.857Z,67.05
2022-12-28T21:46:09.033Z,67.41
2022-12-28T21:48:36.991Z,67.45
2022-12-28T21:51:29.316Z,67.71
2022-12-28T21:53:56.477Z,67.80
2022-12-28T21:56:23.658Z,67.74
2022-12-28T21:58:50.315Z,67.77
2022-12-28T22:01:36.335Z,67.92
2022-12-28T22:04:21.626Z,68.02
2022-12-28T22:06:48.259Z,68.22
2022-12-28T22:09:33.476Z,67.97
2022-12-28T22:12:18.708Z,68.35
2022-12-28T22:14:45.338Z,68.38
2022-12-28T22:17:14.463Z,68.39
2022-12-28T22:19:41.440Z,68.74
2022-12-28T22:22:08.111Z,68.65
2022-12-28T22:24:34.702Z,68.74
2022-12-28T22:27:01.519Z,68.65
2022-12-28T22:29:28.169Z,68.67
2022-12-28T22:31:54.855Z,68.73
2022-12-28T22:34:21.540Z,68.76
2022-12-28T22:36:48.224Z,68.89
2022-12-28T22:39:14.836Z,68.16
2022-12-28T22:41:41.475Z,67.94
2022-12-28T22:44:10.150Z,68.04
2022-12-28T22:46:36.948Z,67.79
2022-12-28T22:49:03.720Z,67.65
2022-12-28T22:51:30.390Z,67.56
2022-12-28T22:53:57.103Z,67.08
2022-12-28T22:56:23.797Z,67.16
2022-12-28T22:58:50.448Z,67.24
2022-12-28T23:01:19.454Z,67.44
2022-12-28T23:03:47.746Z,67.32
2022-12-28T23:06:17.482Z,66.93
2022-12-28T23:08:44.710Z,66.80
2022-12-28T23:11:33.016Z,66.67
2022-12-28T23:14:22.507Z,66.62
2022-12-28T23:16:49.842Z,66.54
2022-12-28T23:19:35.628Z,66.48
2022-12-28T23:22:26.905Z,66.57
2022-12-28T23:25:12.110Z,66.50
2022-12-28T23:27:41.814Z,66.06
2022-12-28T23:30:13.673Z,66.10
2022-12-28T23:32:40.403Z,65.73
2022-12-28T23:35:07.367Z,66.22
2022-12-28T23:37:34.038Z,65.43
2022-12-28T23:40:00.662Z,65.26
2022-12-28T23:42:27.535Z,65.36
2022-12-28T23:44:54.220Z,65.12
2022-12-28T23:47:20.897Z,64.53
2022-12-28T23:49:47.560Z,64.49
2022-12-28T23:52:14.250Z,64.67
2022-12-28T23:54:40.910Z,64.49
2022-12-28T23:57:07.547Z,64.36
2022-12-28T23:59:34.209Z,64.09
